createdAt,value
2017-05-28T00:00:46.161Z,19.40
2017-05-28T00:03:16.018Z,19.40
2017-05-28T00:05:45.848Z,19.30
2017-05-28T00:08:15.633Z,19.30
2017-05-28T00:10:53.820Z,19.30
2017-05-28T00:13:24.435Z,19.10
2017-05-28T00:15:54.316Z,19.00
2017-05-28T00:18:24.053Z,18.80
2017-05-28T00:20:53.860Z,18.70
2017-05-28T00:23:23.705Z,18.50
2017-05-28T00:25:53.561Z,18.40
2017-05-28T00:28:23.719Z,18.20
2017-05-28T00:30:53.594Z,18.10
2017-05-28T00:33:24.150Z,18.00
2017-05-28T00:35:53.912Z,17.90
2017-05-28T00:38:23.728Z,17.80
2017-05-28T00:40:53.523Z,17.70
2017-05-28T00:43:22.796Z,17.60
2017-05-28T00:45:53.612Z,17.50
2017-05-28T00:48:23.584Z,17.40
2017-05-28T00:50:53.384Z,17.30
2017-05-28T00:53:22.449Z,17.30
2017-05-28T00:55:52.338Z,17.30
2017-05-28T00:58:22.179Z,17.30
2017-05-28T01:00:52.050Z,17.30
2017-05-28T01:03:21.910Z,17.10
2017-05-28T01:05:51.782Z,17.10
2017-05-28T01:08:21.981Z,17.10
2017-05-28T01:10:52.069Z,17.00
2017-05-28T01:13:22.130Z,16.90
2017-05-28T01:15:52.184Z,16.90
2017-05-28T01:18:22.032Z,16.80
2017-05-28T01:20:51.939Z,16.80
2017-05-28T01:23:22.806Z,16.70
2017-05-28T01:25:52.573Z,16.60
2017-05-28T01:28:22.293Z,16.60
2017-05-28T01:30:52.128Z,16.50
2017-05-28T01:33:21.194Z,16.50
2017-05-28T01:35:51.013Z,16.40
2017-05-28T01:38:20.862Z,16.40
2017-05-28T01:40:50.643Z,16.40
2017-05-28T01:43:20.445Z,16.30
2017-05-28T01:45:49.415Z,16.20
2017-05-28T01:48:19.330Z,16.10
2017-05-28T01:50:49.153Z,16.00
2017-05-28T01:53:18.916Z,15.90
2017-05-28T01:55:48.994Z,15.90
2017-05-28T01:58:18.049Z,15.80
2017-05-28T02:00:47.898Z,15.80
2017-05-28T02:03:16.963Z,15.80
2017-05-28T02:05:46.711Z,15.80
2017-05-28T02:08:15.746Z,15.70
2017-05-28T02:10:45.562Z,15.80
2017-05-28T02:13:15.377Z,15.80
2017-05-28T02:15:44.454Z,15.70
2017-05-28T02:18:14.275Z,15.90
2017-05-28T02:20:44.147Z,15.80
2017-05-28T02:23:13.948Z,15.80
2017-05-28T02:25:42.997Z,15.70
2017-05-28T02:28:12.777Z,15.60
2017-05-28T02:30:42.590Z,15.40
2017-05-28T02:33:12.433Z,15.30
2017-05-28T02:35:41.468Z,15.30
2017-05-28T02:38:11.227Z,15.20
2017-05-28T02:40:41.107Z,15.20
2017-05-28T02:43:10.158Z,15.20
2017-05-28T02:45:40.048Z,15.20
2017-05-28T02:48:09.067Z,15.20
2017-05-28T02:50:38.116Z,15.20
2017-05-28T02:53:07.292Z,15.20
2017-05-28T02:55:37.151Z,15.30
2017-05-28T02:58:06.948Z,15.30
2017-05-28T03:00:36.798Z,15.30
2017-05-28T03:03:06.705Z,15.30
2017-05-28T03:05:36.593Z,15.20
2017-05-28T03:08:06.363Z,15.10
2017-05-28T03:10:35.448Z,15.00
2017-05-28T03:13:04.495Z,15.20
2017-05-28T03:15:34.328Z,15.20
2017-05-28T03:18:03.843Z,15.10
2017-05-28T03:20:33.591Z,15.20
2017-05-28T03:23:03.642Z,15.10
2017-05-28T03:25:33.395Z,15.00
2017-05-28T03:28:03.421Z,14.90
2017-05-28T03:30:33.225Z,14.90
2017-05-28T03:33:03.130Z,14.90
2017-05-28T03:35:32.213Z,14.80
2017-05-28T03:38:02.597Z,14.90
2017-05-28T03:40:32.640Z,15.00
2017-05-28T03:43:02.392Z,15.00
2017-05-28T03:45:32.248Z,15.00
2017-05-28T03:48:01.253Z,15.00
2017-05-28T03:50:31.083Z,15.00
2017-05-28T03:53:00.962Z,14.90
2017-05-28T03:55:30.794Z,14.90
2017-05-28T03:57:59.832Z,14.80
2017-05-28T04:00:28.886Z,14.90
2017-05-28T04:02:59.160Z,15.00
2017-05-28T04:05:29.176Z,15.00
2017-05-28T04:07:58.160Z,14.90
2017-05-28T04:10:28.819Z,15.10
2017-05-28T04:12:58.592Z,15.20
2017-05-28T04:15:28.455Z,15.20
2017-05-28T04:17:58.186Z,15.30
2017-05-28T04:20:27.579Z,15.30
2017-05-28T04:22:57.363Z,15.50
2017-05-28T04:25:29.484Z,15.60
2017-05-28T04:27:59.323Z,15.70
2017-05-28T04:30:30.485Z,15.80
2017-05-28T04:33:00.231Z,16.00
2017-05-28T04:35:29.244Z,16.00
2017-05-28T04:37:59.099Z,16.90
2017-05-28T04:40:29.506Z,17.50
2017-05-28T04:42:59.222Z,18.20
2017-05-28T04:45:29.189Z,18.80
2017-05-28T04:47:58.959Z,19.20
2017-05-28T04:50:28.820Z,19.30
2017-05-28T04:52:58.651Z,19.40
2017-05-28T04:55:28.895Z,19.40
2017-05-28T04:57:58.695Z,19.40
2017-05-28T05:00:28.542Z,19.30
2017-05-28T05:02:58.386Z,19.40
2017-05-28T05:05:28.164Z,20.00
2017-05-28T05:07:57.958Z,20.70
2017-05-28T05:10:27.734Z,21.60
2017-05-28T05:12:57.486Z,22.30
2017-05-28T05:15:27.387Z,23.30
2017-05-28T05:17:57.198Z,24.10
2017-05-28T05:20:26.998Z,24.80
2017-05-28T05:22:56.800Z,25.40
2017-05-28T05:25:26.666Z,25.70
2017-05-28T05:27:57.174Z,26.30
2017-05-28T05:30:27.057Z,26.80
2017-05-28T05:32:56.819Z,26.30
2017-05-28T05:35:26.707Z,26.20
2017-05-28T05:37:56.456Z,26.50
2017-05-28T05:40:26.309Z,26.30
2017-05-28T05:42:56.335Z,27.20
2017-05-28T05:45:26.162Z,28.10
2017-05-28T05:47:55.909Z,28.50
2017-05-28T05:50:25.734Z,29.50
2017-05-28T05:52:55.477Z,30.30
2017-05-28T05:55:25.271Z,30.90
2017-05-28T05:57:55.095Z,31.20
2017-05-28T06:00:25.463Z,31.60
2017-05-28T06:02:55.221Z,31.80
2017-05-28T06:05:25.050Z,31.60
2017-05-28T06:07:55.743Z,31.90
2017-05-28T06:10:25.704Z,31.50
2017-05-28T06:12:55.480Z,31.80
2017-05-28T06:15:25.403Z,32.50
2017-05-28T06:17:55.480Z,33.00
2017-05-28T06:20:25.417Z,33.20
2017-05-28T06:22:55.159Z,33.60
2017-05-28T06:25:24.996Z,33.90
2017-05-28T06:27:54.785Z,34.30
2017-05-28T06:30:24.786Z,34.30
2017-05-28T06:32:56.921Z,33.20
2017-05-28T06:35:26.728Z,32.10
2017-05-28T06:37:56.509Z,31.60
2017-05-28T06:40:26.277Z,32.30
2017-05-28T06:42:55.260Z,32.30
2017-05-28T06:45:25.761Z,32.70
2017-05-28T06:47:55.576Z,33.80
2017-05-28T06:50:25.463Z,34.50
2017-05-28T06:52:55.388Z,33.80
2017-05-28T06:55:25.206Z,34.70
2017-05-28T06:57:55.101Z,35.40
2017-05-28T07:00:24.247Z,35.30
2017-05-28T07:02:54.042Z,35.00
2017-05-28T07:05:23.818Z,35.50
2017-05-28T07:07:53.718Z,35.60
2017-05-28T07:10:23.597Z,36.00
2017-05-28T07:12:53.912Z,35.20
2017-05-28T07:15:23.712Z,35.30
2017-05-28T07:17:53.524Z,35.70
2017-05-28T07:20:23.473Z,35.80
2017-05-28T07:22:53.547Z,34.60
2017-05-28T07:25:23.411Z,33.20
2017-05-28T07:27:53.198Z,31.80
2017-05-28T07:30:23.321Z,30.50
2017-05-28T07:32:53.184Z,30.00
2017-05-28T07:35:23.112Z,29.70
2017-05-28T07:37:53.042Z,29.70
2017-05-28T07:40:24.011Z,29.60
2017-05-28T07:42:54.244Z,29.20
2017-05-28T07:45:23.528Z,29.10
2017-05-28T07:47:53.321Z,28.20
2017-05-28T07:50:23.285Z,28.20
2017-05-28T07:52:53.130Z,28.20
2017-05-28T07:55:23.177Z,28.30
2017-05-28T07:57:53.135Z,28.30
2017-05-28T08:00:23.066Z,28.60
2017-05-28T08:02:53.206Z,29.40
2017-05-28T08:05:23.929Z,30.50
2017-05-28T08:07:53.806Z,31.40
2017-05-28T08:10:23.652Z,32.60
2017-05-28T08:12:53.794Z,33.30
2017-05-28T08:15:25.277Z,33.90
2017-05-28T08:17:54.433Z,33.80
2017-05-28T08:20:24.343Z,34.90
2017-05-28T08:22:54.917Z,35.50
2017-05-28T08:25:25.063Z,35.20
2017-05-28T08:27:55.226Z,34.30
2017-05-28T08:30:25.071Z,34.60
2017-05-28T08:32:55.023Z,35.30
2017-05-28T08:35:24.865Z,35.80
2017-05-28T08:37:54.729Z,36.30
2017-05-28T08:40:25.248Z,36.90
2017-05-28T08:42:55.106Z,37.30
2017-05-28T08:45:25.051Z,36.70
2017-05-28T08:47:54.872Z,36.40
2017-05-28T08:50:24.838Z,37.30
2017-05-28T08:52:55.088Z,38.00
2017-05-28T08:55:25.268Z,38.10
2017-05-28T08:57:55.109Z,38.00
2017-05-28T09:00:25.317Z,38.30
2017-05-28T09:02:55.112Z,38.30
2017-05-28T09:05:24.999Z,37.10
2017-05-28T09:07:54.162Z,37.10
2017-05-28T09:10:33.778Z,39.10
2017-05-28T09:13:07.611Z,39.70
2017-05-28T09:15:37.856Z,39.40
2017-05-28T09:18:09.413Z,39.30
2017-05-28T09:20:39.923Z,37.90
2017-05-28T09:23:09.925Z,36.90
2017-05-28T09:25:39.233Z,36.90
2017-05-28T09:28:09.132Z,36.60
2017-05-28T09:30:38.401Z,36.50
2017-05-28T09:33:11.690Z,38.20
2017-05-28T09:35:41.593Z,38.40
2017-05-28T09:38:11.601Z,38.90
2017-05-28T09:40:42.218Z,38.60
2017-05-28T09:43:12.140Z,39.10
2017-05-28T09:45:42.793Z,38.40
2017-05-28T09:48:13.047Z,39.00
2017-05-28T09:50:42.955Z,40.00
2017-05-28T09:53:12.976Z,41.00
2017-05-28T09:55:42.916Z,41.10
2017-05-28T09:58:12.832Z,39.80
2017-05-28T10:00:44.801Z,39.30
2017-05-28T10:03:14.702Z,39.10
2017-05-28T10:05:44.544Z,39.50
2017-05-28T10:08:14.472Z,39.30
2017-05-28T10:10:44.383Z,38.50
2017-05-28T10:13:14.304Z,37.60
2017-05-28T10:15:44.453Z,37.10
2017-05-28T10:18:14.349Z,36.70
2017-05-28T10:20:44.239Z,37.10
2017-05-28T10:23:14.230Z,37.90
2017-05-28T10:25:44.168Z,38.30
2017-05-28T10:28:15.072Z,37.90
2017-05-28T10:30:45.757Z,37.90
2017-05-28T10:33:15.696Z,38.30
2017-05-28T10:35:47.045Z,37.30
2017-05-28T10:38:17.149Z,36.70
2017-05-28T10:40:47.204Z,37.90
2017-05-28T10:43:17.196Z,37.30
2017-05-28T10:45:47.618Z,38.10
2017-05-28T10:48:17.635Z,38.60
2017-05-28T10:50:47.922Z,38.60
2017-05-28T10:53:18.766Z,38.90
2017-05-28T10:55:48.794Z,37.10
2017-05-28T10:58:19.054Z,37.00
2017-05-28T11:00:50.280Z,36.60
2017-05-28T11:04:22.219Z,36.50
2017-05-28T11:06:52.168Z,35.60
2017-05-28T11:09:22.678Z,36.70
2017-05-28T11:11:53.415Z,38.00
2017-05-28T11:14:23.282Z,38.10
2017-05-28T11:16:53.153Z,37.80
2017-05-28T11:19:23.141Z,37.30
2017-05-28T11:22:00.245Z,37.30
2017-05-28T11:24:30.253Z,37.50
2017-05-28T11:27:00.118Z,37.70
2017-05-28T11:29:30.290Z,36.80
2017-05-28T11:32:00.922Z,36.40
2017-05-28T11:34:30.879Z,37.30
2017-05-28T11:37:00.779Z,37.50
2017-05-28T11:39:31.143Z,37.00
2017-05-28T11:42:01.052Z,36.20
2017-05-28T11:44:30.961Z,36.10
2017-05-28T11:47:00.838Z,35.50
2017-05-28T11:49:30.805Z,35.00
2017-05-28T11:52:00.734Z,34.60
2017-05-28T11:54:30.630Z,33.70
2017-05-28T11:57:06.030Z,32.50
2017-05-28T11:59:35.940Z,32.50
2017-05-28T12:02:06.243Z,31.80
2017-05-28T12:04:36.626Z,31.30
2017-05-28T12:12:26.307Z,31.10
2017-05-28T12:14:56.205Z,30.80
2017-05-28T12:17:26.316Z,30.30
2017-05-28T12:19:56.296Z,30.00
2017-05-28T12:22:26.303Z,30.00
2017-05-28T12:24:56.221Z,29.90
2017-05-28T12:27:25.526Z,29.90
2017-05-28T12:29:56.762Z,29.80
2017-05-28T12:32:27.616Z,29.70
2017-05-28T12:34:57.547Z,29.70
2017-05-28T12:37:27.431Z,30.00
2017-05-28T12:39:58.328Z,30.20
2017-05-28T12:42:29.044Z,30.30
2017-05-28T12:44:59.192Z,30.50
2017-05-28T12:47:29.638Z,30.60
2017-05-28T12:49:59.650Z,30.60
2017-05-28T12:52:33.469Z,30.40
2017-05-28T12:55:12.028Z,29.80
2017-05-28T12:57:47.542Z,29.40
2017-05-28T13:03:12.690Z,28.70
2017-05-28T13:05:43.823Z,28.60
2017-05-28T13:08:15.250Z,28.60
2017-05-28T13:10:46.200Z,28.30
2017-05-28T13:13:16.457Z,28.20
2017-05-28T13:15:47.438Z,28.00
2017-05-28T13:18:20.559Z,28.00
2017-05-28T13:20:51.558Z,27.90
2017-05-28T13:23:29.725Z,27.80
2017-05-28T13:26:00.586Z,27.70
2017-05-28T13:28:31.497Z,27.90
2017-05-28T13:31:03.749Z,28.10
2017-05-28T13:33:34.055Z,28.30
2017-05-28T13:36:08.992Z,28.20
2017-05-28T13:38:41.214Z,28.20
2017-05-28T13:41:12.675Z,28.50
2017-05-28T13:43:42.636Z,28.50
2017-05-28T13:46:14.413Z,28.70
2017-05-28T13:48:44.380Z,28.30
2017-05-28T13:51:15.367Z,27.90
2017-05-28T13:53:49.023Z,27.50
2017-05-28T13:56:19.507Z,27.60
2017-05-28T13:58:49.611Z,27.60
2017-05-28T14:01:20.033Z,27.80
2017-05-28T14:03:51.681Z,27.80
2017-05-28T14:06:23.180Z,27.70
2017-05-28T14:08:53.081Z,27.60
2017-05-28T14:11:23.937Z,27.70
2017-05-28T14:13:57.194Z,28.30
2017-05-28T14:16:32.470Z,28.70
2017-05-28T14:19:01.715Z,28.60
2017-05-28T14:21:32.736Z,29.00
2017-05-28T14:24:02.637Z,29.00
2017-05-28T14:26:32.767Z,29.00
2017-05-28T14:29:02.068Z,28.90
2017-05-28T14:31:32.117Z,29.00
2017-05-28T14:34:10.695Z,29.10
2017-05-28T14:37:59.414Z,29.10
2017-05-28T14:40:33.872Z,29.10
2017-05-28T14:43:04.699Z,28.80
2017-05-28T14:45:35.125Z,28.60
2017-05-28T14:48:08.357Z,28.40
2017-05-28T14:50:40.082Z,28.40
2017-05-28T14:53:10.157Z,28.30
2017-05-28T14:55:40.571Z,28.50
2017-05-28T14:58:11.173Z,28.50
2017-05-28T15:00:42.307Z,28.50
2017-05-28T15:03:13.145Z,28.30
2017-05-28T15:05:44.070Z,28.10
2017-05-28T15:08:13.979Z,28.00
2017-05-28T15:10:45.340Z,28.20
2017-05-28T15:13:15.627Z,28.20
2017-05-28T15:15:47.823Z,28.30
2017-05-28T15:18:18.767Z,28.30
2017-05-28T15:20:49.079Z,28.40
2017-05-28T15:23:19.968Z,28.40
2017-05-28T15:25:52.170Z,28.20
2017-05-28T15:28:38.025Z,28.10
2017-05-28T15:33:57.979Z,27.80
2017-05-28T15:36:32.801Z,27.50
2017-05-28T15:39:03.340Z,27.40
2017-05-28T15:41:35.397Z,27.60
2017-05-28T15:44:07.596Z,27.60
2017-05-28T15:46:41.590Z,27.70
2017-05-28T15:49:14.780Z,27.60
2017-05-28T15:51:45.518Z,27.60
2017-05-28T15:54:16.950Z,27.70
2017-05-28T15:56:47.157Z,27.50
2017-05-28T15:59:18.325Z,27.60
2017-05-28T16:01:48.373Z,27.70
2017-05-28T16:04:19.278Z,27.80
2017-05-28T16:09:28.851Z,27.70
2017-05-28T16:11:59.123Z,27.70
2017-05-28T16:14:29.640Z,27.70
2017-05-28T16:16:59.646Z,27.60
2017-05-28T16:19:34.791Z,27.60
2017-05-28T16:23:29.489Z,27.70
2017-05-28T16:25:59.310Z,27.60
2017-05-28T16:28:29.347Z,27.60
2017-05-28T16:31:00.280Z,27.60
2017-05-28T16:33:30.945Z,27.60
2017-05-28T16:36:01.108Z,27.40
2017-05-28T16:38:31.520Z,27.30
2017-05-28T16:42:20.565Z,27.20
2017-05-28T16:44:50.907Z,27.00
2017-05-28T16:47:21.101Z,26.90
2017-05-28T16:49:51.632Z,27.00
2017-05-28T16:54:58.657Z,27.20
2017-05-28T16:57:29.129Z,27.20
2017-05-28T17:00:00.285Z,27.00
2017-05-28T17:02:30.922Z,26.90
2017-05-28T17:05:01.571Z,26.80
2017-05-28T17:07:31.987Z,26.90
2017-05-28T17:10:12.129Z,26.90
2017-05-28T17:12:43.797Z,26.90
2017-05-28T17:15:15.366Z,26.70
2017-05-28T17:17:46.948Z,26.60
2017-05-28T17:20:21.129Z,26.70
2017-05-28T17:22:51.076Z,26.80
2017-05-28T17:25:21.941Z,26.90
2017-05-28T17:27:53.637Z,27.00
2017-05-28T17:30:25.614Z,27.10
2017-05-28T17:32:56.539Z,27.00
2017-05-28T17:35:27.534Z,26.90
2017-05-28T17:37:57.542Z,26.90
2017-05-28T17:40:31.061Z,26.90
2017-05-28T17:43:00.973Z,26.80
2017-05-28T17:46:33.467Z,26.70
2017-05-28T17:49:05.738Z,26.50
2017-05-28T17:51:35.780Z,26.50
2017-05-28T17:54:07.483Z,26.60
2017-05-28T17:56:38.463Z,26.60
2017-05-28T17:59:10.704Z,26.50
2017-05-28T18:01:40.669Z,26.30
2017-05-28T18:04:10.900Z,26.10
2017-05-28T18:06:41.424Z,26.00
2017-05-28T18:09:11.342Z,25.90
2017-05-28T18:11:41.796Z,25.90
2017-05-28T18:14:13.613Z,25.80
2017-05-28T18:16:44.149Z,25.60
2017-05-28T18:19:15.413Z,25.50
2017-05-28T18:21:45.486Z,25.40
2017-05-28T18:24:22.315Z,25.40
2017-05-28T18:26:53.130Z,25.30
2017-05-28T18:29:23.763Z,25.30
2017-05-28T18:31:54.337Z,25.20
2017-05-28T18:34:24.272Z,25.20
2017-05-28T18:36:55.734Z,25.10
2017-05-28T18:39:26.312Z,25.10
2017-05-28T18:41:55.537Z,25.00
2017-05-28T18:44:27.508Z,25.00
2017-05-28T18:46:57.440Z,25.00
2017-05-28T18:49:29.835Z,25.00
2017-05-28T18:52:02.660Z,25.00
2017-05-28T18:54:33.317Z,24.90
2017-05-28T18:57:05.795Z,24.80
2017-05-28T18:59:37.748Z,24.80
2017-05-28T19:02:08.234Z,24.60
2017-05-28T19:04:40.157Z,24.50
2017-05-28T19:07:10.748Z,24.40
2017-05-28T19:09:40.684Z,24.30
2017-05-28T19:12:11.838Z,24.20
2017-05-28T19:14:41.785Z,24.20
2017-05-28T19:17:13.853Z,24.00
2017-05-28T19:19:43.809Z,23.90
2017-05-28T19:22:20.519Z,23.80
2017-05-28T19:24:50.621Z,23.40
2017-05-28T19:27:20.674Z,23.40
2017-05-28T19:29:51.433Z,23.20
2017-05-28T19:32:21.290Z,23.10
2017-05-28T19:34:51.201Z,22.90
2017-05-28T19:37:51.624Z,22.90
2017-05-28T19:40:22.115Z,22.70
2017-05-28T19:42:52.716Z,22.80
2017-05-28T19:45:23.846Z,22.80
2017-05-28T19:47:53.721Z,22.60
2017-05-28T19:50:23.627Z,22.60
2017-05-28T19:52:53.662Z,22.60
2017-05-28T19:55:24.218Z,22.60
2017-05-28T19:57:54.045Z,22.50
2017-05-28T20:00:24.009Z,22.50
2017-05-28T20:02:53.823Z,22.30
2017-05-28T20:05:24.776Z,22.10
2017-05-28T20:07:54.655Z,22.00
2017-05-28T20:10:24.629Z,21.90
2017-05-28T20:12:54.610Z,22.00
2017-05-28T20:15:25.486Z,22.10
2017-05-28T20:17:55.749Z,22.00
2017-05-28T20:21:46.268Z,22.00
2017-05-28T20:24:16.254Z,22.00
2017-05-28T20:26:46.282Z,21.80
2017-05-28T20:29:16.656Z,21.70
2017-05-28T20:31:46.870Z,21.80
2017-05-28T20:34:47.550Z,21.70
2017-05-28T20:37:19.095Z,21.60
2017-05-28T20:41:09.665Z,21.60
2017-05-28T20:43:40.627Z,21.60
2017-05-28T20:46:10.755Z,21.50
2017-05-28T20:48:40.747Z,21.20
2017-05-28T20:51:11.341Z,21.20
2017-05-28T20:53:42.243Z,21.00
2017-05-28T20:56:12.259Z,21.00
2017-05-28T20:58:41.407Z,21.00
2017-05-28T21:01:11.555Z,21.10
2017-05-28T21:03:41.498Z,21.20
2017-05-28T21:06:12.006Z,21.10
2017-05-28T21:08:42.037Z,21.00
2017-05-28T21:11:13.283Z,21.10
2017-05-28T21:13:43.237Z,21.20
2017-05-28T21:16:13.142Z,21.20
2017-05-28T21:18:43.838Z,21.10
2017-05-28T21:21:13.714Z,21.00
2017-05-28T21:23:43.642Z,20.80
2017-05-28T21:26:14.414Z,20.70
2017-05-28T21:28:44.473Z,20.60
2017-05-28T21:31:14.541Z,20.60
2017-05-28T21:33:44.375Z,20.50
2017-05-28T21:36:14.208Z,20.60
2017-05-28T21:38:43.666Z,20.60
2017-05-28T21:41:14.036Z,20.60
2017-05-28T21:43:43.793Z,20.70
2017-05-28T21:46:13.627Z,20.70
2017-05-28T21:48:43.417Z,20.50
2017-05-28T21:51:13.290Z,20.50
2017-05-28T21:53:42.298Z,20.50
2017-05-28T21:56:12.188Z,20.40
2017-05-28T21:58:42.009Z,20.30
2017-05-28T22:01:11.842Z,20.30
2017-05-28T22:03:40.897Z,20.30
2017-05-28T22:06:10.771Z,20.40
2017-05-28T22:08:39.857Z,20.40
2017-05-28T22:11:09.662Z,20.40
2017-05-28T22:13:39.439Z,20.30
2017-05-28T22:16:10.354Z,20.10
2017-05-28T22:18:39.369Z,20.10
2017-05-28T22:21:09.254Z,20.10
2017-05-28T22:23:38.980Z,20.10
2017-05-28T22:26:08.954Z,20.00
2017-05-28T22:28:38.767Z,20.00
2017-05-28T22:31:08.545Z,20.00
2017-05-28T22:33:37.564Z,20.00
2017-05-28T22:37:26.711Z,19.90
2017-05-28T22:39:56.576Z,19.80
2017-05-28T22:42:26.334Z,19.90
2017-05-28T22:44:56.126Z,19.90
2017-05-28T22:47:25.937Z,19.90
2017-05-28T22:49:56.154Z,19.80
2017-05-28T22:52:26.010Z,19.80
2017-05-28T22:54:55.056Z,19.80
2017-05-28T22:57:24.918Z,19.80
2017-05-28T22:59:54.797Z,19.80
2017-05-28T23:02:24.585Z,19.70
2017-05-28T23:04:54.360Z,19.60
2017-05-28T23:07:24.161Z,19.60
2017-05-28T23:09:53.928Z,19.50
2017-05-28T23:12:23.693Z,19.40
2017-05-28T23:14:54.020Z,19.50
2017-05-28T23:17:23.113Z,19.40
2017-05-28T23:19:52.125Z,19.40
2017-05-28T23:22:21.953Z,19.30
2017-05-28T23:24:51.693Z,19.30
2017-05-28T23:27:21.490Z,19.30
2017-05-28T23:29:50.564Z,19.20
2017-05-28T23:32:20.617Z,19.40
2017-05-28T23:34:50.444Z,19.50
2017-05-28T23:37:20.791Z,19.50
2017-05-28T23:39:50.603Z,19.60
2017-05-28T23:42:20.414Z,19.60
2017-05-28T23:44:50.177Z,19.60
2017-05-28T23:47:19.988Z,19.60
2017-05-28T23:49:50.013Z,19.70
2017-05-28T23:52:19.926Z,19.50
2017-05-28T23:54:49.669Z,19.30
2017-05-28T23:57:19.775Z,19.20
2017-05-28T23:59:49.654Z,19.20
